Time;durP1;ratioP1;P1;durP2;ratioP2;P2;SDS_P1;SDS_P2;PMS_P1;PMS_P2;Temp;Humidity;BMP_temperature;BMP_pressure;BME280_temperature;BME280_humidity;BME280_pressure;Samples;Min_cycle;Max_cycle;Signal;HPM_P1;HPM_P2
2023/09/18 00:01:34;;;;;;;18.70;15.57;;;;;;;-145.50;100.00;65435.88;5046296;28;20057;-72
2023/09/18 00:04:01;;;;;;;23.20;16.50;;;;;;;-145.50;100.00;65435.88;5052934;28;20071;-71
2023/09/18 00:06:27;;;;;;;17.60;15.25;;;;;;;-145.50;100.00;65435.88;5056984;28;20201;-72
2023/09/18 00:08:54;;;;;;;21.52;15.63;;;;;;;-145.50;100.00;65435.88;5045814;28;20088;-71
2023/09/18 00:11:21;;;;;;;18.17;15.95;;;;;;;-145.50;100.00;65435.88;5048775;28;20051;-71
2023/09/18 00:13:47;;;;;;;19.63;16.42;;;;;;;-145.50;100.00;65435.88;5052567;28;20048;-71
2023/09/18 00:16:14;;;;;;;18.67;16.05;;;;;;;-145.50;100.00;65435.88;5042209;28;20048;-71
2023/09/18 00:18:44;;;;;;;19.80;16.33;;;;;;;-145.50;100.00;65435.88;5048012;28;20260;-71
2023/09/18 00:21:14;;;;;;;21.42;15.73;;;;;;;-145.50;100.00;65435.88;5049528;28;20060;-72
2023/09/18 00:23:41;;;;;;;21.15;16.27;;;;;;;-145.50;100.00;65435.88;5049293;28;20349;-71
2023/09/18 00:26:07;;;;;;;20.25;16.55;;;;;;;-145.50;100.00;65435.88;5039624;28;20053;-70
2023/09/18 00:28:34;;;;;;;22.23;16.90;;;;;;;-145.50;100.00;65435.88;5045988;28;20068;-72
2023/09/18 00:31:00;;;;;;;20.58;15.32;;;;;;;-145.50;100.00;65435.88;5053086;28;20102;-71
2023/09/18 00:33:27;;;;;;;23.48;16.85;;;;;;;-145.50;100.00;65435.88;5054527;28;20143;-72
2023/09/18 00:35:54;;;;;;;19.13;15.93;;;;;;;19.50;100.00;100530.69;5057886;28;20499;-72
2023/09/18 00:38:20;;;;;;;21.70;15.27;;;;;;;19.51;100.00;100532.31;5042894;28;20049;-71
2023/09/18 00:40:47;;;;;;;17.83;15.70;;;;;;;19.47;100.00;100528.44;5049440;28;20140;-71
2023/09/18 00:43:14;;;;;;;17.67;14.65;;;;;;;19.48;100.00;100542.53;5042131;28;20048;-72
2023/09/18 00:45:43;;;;;;;20.30;17.92;;;;;;;19.54;100.00;100525.72;5049027;28;20045;-71
2023/09/18 00:48:11;;;;;;;19.95;16.13;;;;;;;19.55;100.00;100511.41;5058497;28;20150;-71
2023/09/18 00:50:38;;;;;;;19.77;16.27;;;;;;;19.53;100.00;100511.63;5051030;28;20513;-71
2023/09/18 00:53:07;;;;;;;20.50;16.52;;;;;;;-145.50;100.00;65435.88;5047912;28;20068;-72
2023/09/18 00:55:36;;;;;;;19.55;15.75;;;;;;;-145.50;100.00;65435.88;5048780;28;20056;-72
2023/09/18 00:59:02;;;;;;;21.52;17.02;;;;;;;-145.50;100.00;65435.88;5038026;28;20040;-71
2023/09/18 01:02:30;;;;;;;21.60;16.05;;;;;;;-145.50;100.00;65435.88;5051061;28;20408;-72
2023/09/18 01:05:56;;;;;;;19.83;16.73;;;;;;;-145.50;100.00;65435.88;5059120;28;20048;-71
2023/09/18 01:09:22;;;;;;;23.52;16.45;;;;;;;-145.50;100.00;65435.88;5056337;28;20045;-71
2023/09/18 01:13:05;;;;;;;19.20;16.20;;;;;;;-145.50;100.00;65435.88;5036712;28;20539;-73
2023/09/18 01:16:45;;;;;;;24.50;15.77;;;;;;;-145.50;100.00;65435.88;5059221;28;20044;-71
2023/09/18 01:20:11;;;;;;;21.98;15.88;;;;;;;-145.50;100.00;65435.88;5060484;28;20056;-71
2023/09/18 01:23:37;;;;;;;19.70;15.95;;;;;;;-145.50;100.00;65435.88;5045936;28;20087;-71
2023/09/18 01:27:05;;;;;;;18.98;16.27;;;;;;;-145.50;100.00;65435.88;5056432;28;20546;-71
2023/09/18 01:30:31;;;;;;;20.45;15.88;;;;;;;-145.50;100.00;65435.88;5052316;28;20056;-71
2023/09/18 01:33:58;;;;;;;20.13;15.52;;;;;;;-145.50;100.00;65435.88;5056603;28;20079;-71
2023/09/18 01:37:24;;;;;;;26.13;16.80;;;;;;;-145.50;100.00;65435.88;5055015;28;20064;-72
2023/09/18 01:40:53;;;;;;;18.55;15.70;;;;;;;-145.50;100.00;65435.88;5050553;28;20110;-73
2023/09/18 01:44:18;;;;;;;20.48;15.65;;;;;;;-145.50;100.00;65435.88;5052285;28;20057;-72
2023/09/18 01:47:45;;;;;;;21.55;17.30;;;;;;;-145.50;100.00;65435.88;5057932;28;20052;-72
2023/09/18 01:51:13;;;;;;;20.10;16.10;;;;;;;-145.50;100.00;65435.88;5053030;28;20362;-71
2023/09/18 01:54:38;;;;;;;20.30;16.52;;;;;;;-145.50;100.00;65435.88;5051424;28;20084;-72
2023/09/18 01:58:03;;;;;;;20.48;16.25;;;;;;;-145.50;100.00;65435.88;5048642;28;20161;-73
2023/09/18 02:01:29;;;;;;;18.75;15.23;;;;;;;-145.50;100.00;65435.88;5056546;28;20549;-71
2023/09/18 02:04:55;;;;;;;21.23;16.00;;;;;;;-145.50;100.00;65435.88;5039590;28;20391;-71
2023/09/18 02:08:34;;;;;;;23.33;17.13;;;;;;;-145.50;100.00;65435.88;5058153;28;20058;-72
2023/09/18 02:11:59;;;;;;;20.15;17.02;;;;;;;-145.50;100.00;65435.88;5057137;28;20051;-71
2023/09/18 02:15:24;;;;;;;19.05;16.17;;;;;;;-145.50;100.00;65435.88;5038555;28;20057;-72
2023/09/18 02:17:57;;;;;;;20.65;16.83;;;;;;;-145.50;100.00;65435.88;5061041;28;20106;-71
2023/09/18 02:21:23;;;;;;;22.20;16.63;;;;;;;-145.50;100.00;65435.88;5051305;28;20508;-73
2023/09/18 02:24:50;;;;;;;22.63;15.23;;;;;;;-145.50;100.00;65435.88;5061732;28;20072;-72
2023/09/18 02:28:16;;;;;;;17.65;15.15;;;;;;;-145.50;100.00;65435.88;5039398;28;20505;-71
2023/09/18 02:31:41;;;;;;;21.00;15.43;;;;;;;-145.50;100.00;65435.88;5045995;28;20053;-73
2023/09/18 02:35:07;;;;;;;21.30;15.50;;;;;;;-145.50;100.00;65435.88;5043097;28;20053;-71
2023/09/18 02:38:32;;;;;;;23.40;15.43;;;;;;;-145.50;100.00;65435.88;5053586;28;20524;-72
2023/09/18 02:41:58;;;;;;;21.40;15.48;;;;;;;-145.50;100.00;65435.88;5054680;28;20615;-72
2023/09/18 02:45:24;;;;;;;20.45;16.10;;;;;;;-145.50;100.00;65435.88;5050901;28;20508;-72
2023/09/18 02:48:50;;;;;;;19.75;16.00;;;;;;;-145.50;100.00;65435.88;5059769;28;20347;-71
2023/09/18 02:52:16;;;;;;;19.58;15.18;;;;;;;-145.50;100.00;65435.88;5054220;28;20165;-72
2023/09/18 02:55:41;;;;;;;23.05;15.60;;;;;;;-145.50;100.00;65435.88;5037814;28;20055;-71
2023/09/18 02:58:58;;;;;;;23.27;15.68;;;;;;;-145.50;100.00;65435.88;5044688;28;20559;-72
2023/09/18 03:02:10;;;;;;;17.88;15.05;;;;;;;-145.50;100.00;65435.88;5048500;28;20404;-71
2023/09/18 03:05:23;;;;;;;19.50;15.68;;;;;;;-145.50;100.00;65435.88;5058830;28;20056;-72
2023/09/18 03:07:52;;;;;;;19.98;15.18;;;;;;;-145.50;100.00;65435.88;5056327;28;20503;-71
2023/09/18 03:11:17;;;;;;;18.80;15.10;;;;;;;-145.50;100.00;65435.88;5063692;28;20117;-71
2023/09/18 03:14:06;;;;;;;19.45;15.50;;;;;;;-145.50;100.00;65435.88;5040434;28;20079;-71
2023/09/18 03:17:31;;;;;;;18.63;15.23;;;;;;;-145.50;100.00;65435.88;5050030;28;20051;-71
2023/09/18 03:20:58;;;;;;;17.40;14.70;;;;;;;-145.50;100.00;65435.88;5052473;28;20424;-70
2023/09/18 03:24:10;;;;;;;20.20;15.00;;;;;;;-145.50;100.00;65435.88;5049405;28;20353;-71
2023/09/18 03:26:36;;;;;;;18.25;14.50;;;;;;;-145.50;100.00;65435.88;5063864;28;20060;-71
2023/09/18 03:29:08;;;;;;;20.45;15.18;;;;;;;-145.50;100.00;65435.88;5040252;28;20470;-71
2023/09/18 03:32:35;;;;;;;17.92;14.30;;;;;;;-145.50;100.00;65435.88;5054822;28;20048;-71
2023/09/18 03:36:01;;;;;;;15.57;13.88;;;;;;;-145.50;100.00;65435.88;5051248;28;20072;-72
2023/09/18 03:38:47;;;;;;;16.25;13.73;;;;;;;-145.50;100.00;65435.88;5057754;28;20099;-70
2023/09/18 03:41:43;;;;;;;17.85;13.70;;;;;;;-145.50;100.00;65435.88;5054050;28;20056;-72
2023/09/18 03:45:09;;;;;;;18.08;13.48;;;;;;;-145.50;100.00;65435.88;5060066;28;20052;-72
2023/09/18 03:48:04;;;;;;;15.65;11.30;;;;;;;19.53;100.00;100511.63;5044135;28;20083;-73
2023/09/18 03:51:29;;;;;;;18.30;14.80;;;;;;;-145.50;100.00;65435.88;5050319;28;20044;-72
2023/09/18 03:54:27;;;;;;;18.05;13.85;;;;;;;19.53;100.00;100511.63;5052406;28;20076;-71
2023/09/18 03:57:39;;;;;;;19.90;15.07;;;;;;;-145.50;100.00;65435.88;5053775;28;20452;-71
2023/09/18 04:00:24;;;;;;;20.35;14.70;;;;;;;-145.50;100.00;65435.88;5055247;28;20307;-71
2023/09/18 04:03:28;;;;;;;23.75;15.00;;;;;;;19.53;100.00;100511.63;5061179;28;20041;-73
2023/09/18 04:06:53;;;;;;;22.38;14.25;;;;;;;-145.50;100.00;65435.88;5060387;28;20048;-71
2023/09/18 04:10:22;;;;;;;18.33;13.98;;;;;;;-145.50;100.00;65435.88;5050605;28;20048;-71
2023/09/18 04:13:49;;;;;;;19.33;13.48;;;;;;;-145.50;100.00;65435.88;5048352;28;20105;-70
2023/09/18 04:17:15;;;;;;;17.77;12.90;;;;;;;-145.50;100.00;65435.88;5044827;28;20040;-71
2023/09/18 04:20:41;;;;;;;18.17;13.63;;;;;;;-145.50;100.00;65435.88;5062124;28;20327;-71
2023/09/18 04:23:23;;;;;;;18.45;12.15;;;;;;;19.53;100.00;100511.63;5056326;28;20052;-71
2023/09/18 04:26:52;;;;;;;17.42;12.65;;;;;;;-145.50;100.00;65435.88;5041867;28;20144;-72
2023/09/18 04:30:19;;;;;;;17.40;13.10;;;;;;;-145.50;100.00;65435.88;5054867;28;20052;-72
2023/09/18 04:33:45;;;;;;;21.65;12.98;;;;;;;-145.50;100.00;65435.88;5052280;28;20044;-69
2023/09/18 04:37:10;;;;;;;16.67;12.00;;;;;;;-145.50;100.00;65435.88;5042822;28;20580;-71
2023/09/18 04:40:34;;;;;;;11.60;8.75;;;;;;;-145.50;100.00;65435.88;5046213;28;20171;-72
2023/09/18 04:43:59;;;;;;;16.13;9.13;;;;;;;-145.50;100.00;65435.88;5044389;28;20472;-71
2023/09/18 04:47:25;;;;;;;11.65;9.68;;;;;;;-145.50;100.00;65435.88;5061751;28;20444;-70
2023/09/18 04:49:51;;;;;;;14.40;9.25;;;;;;;-145.50;100.00;65435.88;5055973;28;20835;-71
2023/09/18 04:53:12;;;;;;;17.10;8.10;;;;;;;-145.50;100.00;65435.88;5060543;28;20420;-72
2023/09/18 04:55:38;;;;;;;15.70;7.50;;;;;;;-145.50;100.00;65435.88;5042111;28;20052;-70
2023/09/18 04:58:06;;;;;;;15.82;7.43;;;;;;;-145.50;100.00;65435.88;5061478;28;20431;-70
2023/09/18 05:00:34;;;;;;;13.82;7.07;;;;;;;-145.50;100.00;65435.88;5041381;28;20048;-71
2023/09/18 05:03:01;;;;;;;14.77;7.47;;;;;;;-145.50;100.00;65435.88;5053300;28;20045;-70
2023/09/18 05:05:30;;;;;;;15.23;7.13;;;;;;;-145.50;100.00;65435.88;5050316;28;20130;-72
2023/09/18 05:07:57;;;;;;;16.48;7.57;;;;;;;-145.50;100.00;65435.88;5041832;28;20040;-71
2023/09/18 05:10:23;;;;;;;18.98;7.80;;;;;;;-145.50;100.00;65435.88;5053567;28;20052;-71
2023/09/18 05:13:41;;;;;;;13.50;7.43;;;;;;;-145.50;100.00;65435.88;5053707;28;20106;-71
2023/09/18 05:16:29;;;;;;;13.00;7.43;;;;;;;-145.50;100.00;65435.88;5059595;28;20099;-71
2023/09/18 05:19:54;;;;;;;21.23;7.63;;;;;;;-145.50;100.00;65435.88;5040069;28;20060;-72
2023/09/18 05:23:05;;;;;;;10.80;6.90;;;;;;;-145.50;100.00;65435.88;5060964;28;20686;-70
2023/09/18 05:26:34;;;;;;;20.88;8.02;;;;;;;-145.50;100.00;65435.88;5059020;28;20058;-71
2023/09/18 05:29:59;;;;;;;14.68;7.57;;;;;;;-145.50;100.00;65435.88;5065221;28;20048;-70
2023/09/18 05:33:24;;;;;;;15.18;7.88;;;;;;;-145.50;100.00;65435.88;5061428;28;20048;-71
2023/09/18 05:36:49;;;;;;;14.70;7.93;;;;;;;-145.50;100.00;65435.88;5042779;28;20049;-71
2023/09/18 05:40:12;;;;;;;14.48;7.95;;;;;;;-145.50;100.00;65435.88;5057722;28;20057;-71
2023/09/18 05:43:38;;;;;;;16.25;8.30;;;;;;;-145.50;100.00;65435.88;5047980;28;20057;-71
2023/09/18 05:47:03;;;;;;;11.43;6.45;;;;;;;-145.50;100.00;65435.88;5056575;28;20117;-72
2023/09/18 05:50:30;;;;;;;13.65;8.07;;;;;;;-145.50;100.00;65435.88;5055614;28;20083;-70
2023/09/18 05:53:55;;;;;;;15.20;7.50;;;;;;;-145.50;100.00;65435.88;5055624;28;20055;-71
2023/09/18 05:57:20;;;;;;;15.48;7.63;;;;;;;-145.50;100.00;65435.88;5055240;28;20401;-70
2023/09/18 06:00:46;;;;;;;19.02;8.35;;;;;;;-145.50;100.00;65435.88;5045317;28;20485;-71
2023/09/18 06:04:12;;;;;;;12.32;8.95;;;;;;;-145.50;100.00;65435.88;5048730;28;20080;-70
2023/09/18 06:07:38;;;;;;;17.67;9.20;;;;;;;-145.50;100.00;65435.88;5067096;28;20114;-69
2023/09/18 06:11:03;;;;;;;14.88;8.82;;;;;;;-145.50;100.00;65435.88;5059999;28;20048;-70
2023/09/18 06:14:28;;;;;;;18.67;9.00;;;;;;;-145.50;100.00;65435.88;5058122;28;20063;-71
2023/09/18 06:17:53;;;;;;;11.30;7.43;;;;;;;-145.50;100.00;65435.88;5053214;28;20292;-70
2023/09/18 06:21:19;;;;;;;13.63;8.50;;;;;;;-145.50;100.00;65435.88;5064296;28;20060;-70
2023/09/18 06:24:44;;;;;;;13.95;8.77;;;;;;;-145.50;100.00;65435.88;5055991;28;20053;-70
2023/09/18 06:28:09;;;;;;;14.20;8.27;;;;;;;-145.50;100.00;65435.88;5049824;28;20533;-70
2023/09/18 06:31:34;;;;;;;14.88;8.32;;;;;;;-145.50;100.00;65435.88;5054837;28;20122;-72
2023/09/18 06:34:59;;;;;;;12.68;8.75;;;;;;;-145.50;100.00;65435.88;5052060;28;20136;-70
2023/09/18 06:38:25;;;;;;;16.08;8.48;;;;;;;-145.50;100.00;65435.88;5052698;28;20052;-71
2023/09/18 06:41:50;;;;;;;14.63;7.43;;;;;;;-145.50;100.00;65435.88;5056850;28;20421;-72
2023/09/18 06:45:15;;;;;;;10.75;7.53;;;;;;;-145.50;100.00;65435.88;5043898;28;20414;-71
2023/09/18 06:48:40;;;;;;;10.05;6.40;;;;;;;-145.50;100.00;65435.88;5055293;28;20052;-70
2023/09/18 06:52:06;;;;;;;9.52;6.18;;;;;;;-145.50;100.00;65435.88;5053887;28;20044;-71
2023/09/18 06:55:31;;;;;;;11.98;5.65;;;;;;;-145.50;100.00;65435.88;5059973;28;20390;-70
2023/09/18 06:58:56;;;;;;;11.73;5.60;;;;;;;-145.50;100.00;65435.88;5040552;28;20546;-70
2023/09/18 07:02:21;;;;;;;12.05;5.80;;;;;;;-145.50;100.00;65435.88;5049376;28;20049;-71
2023/09/18 07:05:47;;;;;;;8.25;4.45;;;;;;;-145.50;100.00;65435.88;5058919;28;20542;-71
2023/09/18 07:09:12;;;;;;;8.40;4.57;;;;;;;-145.50;100.00;65435.88;5038320;28;20488;-70
2023/09/18 07:11:40;;;;;;;8.25;3.97;;;;;;;19.53;100.00;100511.63;5056525;28;20064;-71
2023/09/18 07:14:37;;;;;;;8.57;3.45;;;;;;;-145.50;100.00;65435.88;5052409;28;20449;-71
2023/09/18 07:18:03;;;;;;;;;;;;;;;-145.50;100.00;65435.88;5048960;28;20191;-71
2023/09/18 07:21:08;;;;;;;6.68;3.17;;;;;;;19.53;100.00;100511.63;5057386;28;19925;-71
2023/09/18 07:24:30;;;;;;;7.50;3.17;;;;;;;;;;5055828;28;20516;-71
2023/09/18 07:27:55;;;;;;;8.00;3.00;;;;;;;-145.50;100.00;65435.88;5059387;28;20106;-72
2023/09/18 07:31:20;;;;;;;7.07;2.97;;;;;;;-145.50;100.00;65435.88;5050388;28;20052;-70
2023/09/18 07:34:21;;;;;;;7.43;2.80;;;;;;;19.53;100.00;116087.94;5047579;28;20095;-72
2023/09/18 07:37:22;;;;;;;7.50;2.90;;;;;;;19.53;100.00;100511.63;5037065;28;20049;-70
2023/09/18 07:40:04;;;;;;;6.35;2.67;;;;;;;19.53;100.00;100511.63;5042122;28;20055;-70
2023/09/18 07:43:29;;;;;;;6.95;2.85;;;;;;;-145.50;100.00;65435.88;5036620;28;20059;-72
2023/09/18 07:46:54;;;;;;;4.32;2.50;;;;;;;-145.50;100.00;65435.88;5049990;28;20061;-71
2023/09/18 07:50:19;;;;;;;7.03;2.80;;;;;;;-145.50;100.00;65435.88;5039652;28;20045;-71
2023/09/18 07:53:44;;;;;;;5.43;2.42;;;;;;;-145.50;100.00;65435.88;5037855;28;20592;-71
2023/09/18 07:57:09;;;;;;;5.43;2.58;;;;;;;-145.50;100.00;65435.88;5049780;28;20049;-71
2023/09/18 07:59:42;;;;;;;5.57;2.42;;;;;;;-145.50;100.00;65435.88;5048497;28;20631;-70
2023/09/18 08:03:07;;;;;;;5.28;2.58;;;;;;;-145.50;100.00;65435.88;5052389;28;20520;-72
2023/09/18 08:06:32;;;;;;;4.60;2.53;;;;;;;-145.50;100.00;65435.88;5044330;28;20226;-71
2023/09/18 08:09:58;;;;;;;7.35;2.55;;;;;;;-145.50;100.00;65435.88;5042719;28;20122;-72
2023/09/18 08:13:24;;;;;;;5.20;2.40;;;;;;;-145.50;100.00;65435.88;5044707;28;20076;-71
2023/09/18 08:16:55;;;;;;;2.78;2.15;;;;;;;-145.50;100.00;65435.88;5043068;28;20059;-70
2023/09/18 08:20:20;;;;;;;6.60;2.22;;;;;;;-145.50;100.00;65435.88;5046140;28;20044;-70
2023/09/18 08:23:46;;;;;;;6.38;2.45;;;;;;;-145.50;100.00;65435.88;5042868;28;20498;-70
2023/09/18 08:27:13;;;;;;;4.45;2.17;;;;;;;-145.50;100.00;65435.88;5052996;28;20048;-71
2023/09/18 08:30:40;;;;;;;6.32;2.45;;;;;;;-145.50;100.00;65435.88;5051752;28;20133;-71
2023/09/18 08:34:05;;;;;;;4.90;2.50;;;;;;;-145.50;100.00;65435.88;5049148;28;20068;-72
2023/09/18 08:37:30;;;;;;;5.75;2.45;;;;;;;-145.50;100.00;65435.88;5046860;28;20413;-71
2023/09/18 08:40:57;;;;;;;6.05;2.28;;;;;;;-145.50;100.00;65435.88;5046399;28;20044;-72
2023/09/18 08:44:24;;;;;;;4.07;2.08;;;;;;;-145.50;100.00;65435.88;5074445;28;20120;-73
2023/09/18 08:47:54;;;;;;;3.92;2.00;;;;;;;-145.50;100.00;65435.88;5065874;28;20063;-72
2023/09/18 08:51:20;;;;;;;5.70;2.23;;;;;;;-145.50;100.00;65435.88;5041285;28;20069;-72
2023/09/18 08:54:28;;;;;;;3.95;1.90;;;;;;;-145.50;100.00;65435.88;5054056;28;20286;-72
2023/09/18 08:57:55;;;;;;;5.38;2.22;;;;;;;-145.50;100.00;65435.88;5042833;28;20511;-72
2023/09/18 09:00:42;;;;;;;6.13;2.50;;;;;;;19.53;100.00;65435.88;5057934;28;20044;-72
2023/09/18 09:04:06;;;;;;;4.97;2.05;;;;;;;-145.50;100.00;65435.88;5034955;28;21079;-72
2023/09/18 09:07:31;;;;;;;8.13;2.40;;;;;;;-145.50;100.00;65435.88;5049563;28;20056;-70
2023/09/18 09:10:57;;;;;;;5.18;2.25;;;;;;;-145.50;100.00;65435.88;5053782;28;20051;-71
2023/09/18 09:14:18;;;;;;;4.03;2.28;;;;;;;-145.50;100.00;17218.34;5041274;28;20048;-70
2023/09/18 09:16:51;;;;;;;5.00;2.20;;;;;;;-145.50;100.00;65435.88;5045287;28;20048;-71
2023/09/18 09:19:27;;;;;;;6.40;2.15;;;;;;;-145.50;100.00;65435.88;5039639;28;20072;-71
2023/09/18 09:22:42;;;;;;;5.32;2.08;;;;;;;-145.50;100.00;65435.88;5049524;28;20048;-71
2023/09/18 09:25:33;;;;;;;4.35;1.90;;;;;;;-145.50;100.00;65435.88;5051270;28;20626;-71
2023/09/18 09:28:09;;;;;;;7.38;2.20;;;;;;;-145.50;100.00;65435.88;5045964;28;20513;-71
2023/09/18 09:31:34;;;;;;;4.43;2.28;;;;;;;-145.50;100.00;65435.88;5046024;28;20048;-71
2023/09/18 09:34:05;;;;;;;4.75;1.90;;;;;;;-145.50;100.00;65435.88;5050503;28;20489;-70
2023/09/18 09:37:17;;;;;;;6.18;2.05;;;;;;;-145.50;100.00;65435.88;5049955;28;20507;-72
2023/09/18 09:39:50;;;;;;;5.68;2.42;;;;;;;-145.50;100.00;65435.88;5054162;28;20041;-71
2023/09/18 09:42:24;;;;;;;4.53;2.22;;;;;;;-145.50;100.00;65435.88;5052635;28;20053;-73
2023/09/18 09:45:02;;;;;;;4.60;2.17;;;;;;;-145.50;100.00;65435.88;5045133;28;20055;-71
2023/09/18 09:47:35;;;;;;;3.20;1.90;;;;;;;-145.50;100.00;65435.88;5056622;28;20391;-71
2023/09/18 09:50:09;;;;;;;5.03;1.98;;;;;;;-145.50;100.00;65435.88;5044952;28;20124;-71
2023/09/18 09:52:41;;;;;;;7.22;2.03;;;;;;;21.49;100.00;100323.72;5055947;28;20048;-72
2023/09/18 09:55:26;;;;;;;4.10;2.10;;;;;;;-145.50;100.00;65435.88;5047345;28;20052;-72
2023/09/18 09:58:01;;;;;;;5.93;1.95;;;;;;;-145.50;100.00;65435.88;5045806;28;20044;-72
2023/09/18 10:00:50;;;;;;;3.35;1.75;;;;;;;-145.50;100.00;65435.88;5042986;28;20071;-72
2023/09/18 10:03:20;;;;;;;4.72;1.88;;;;;;;22.10;100.00;100292.22;5053252;28;20569;-72
2023/09/18 10:05:51;;;;;;;4.75;2.08;;;;;;;22.27;100.00;100308.38;5050467;28;20053;-71
2023/09/18 10:08:24;;;;;;;3.72;1.50;;;;;;;22.40;100.00;100307.28;5054921;28;20451;-72
2023/09/18 10:10:54;;;;;;;2.55;1.63;;;;;;;22.39;100.00;100308.34;5057867;28;20040;-72
2023/09/18 10:13:40;;;;;;;5.25;1.67;;;;;;;22.45;100.00;100308.19;5053573;28;20098;-71
2023/09/18 10:16:10;;;;;;;4.35;1.85;;;;;;;22.55;100.00;100323.63;5057401;28;20102;-72
2023/09/18 10:19:01;;;;;;;5.90;1.88;;;;;;;22.51;100.00;100333.97;5054377;28;20052;-72
2023/09/18 10:21:32;;;;;;;4.03;1.80;;;;;;;;;;5062390;28;20389;-71
2023/09/18 10:24:12;;;;;;;5.82;1.75;;;;;;;22.26;100.00;100339.59;5043778;28;20053;-71
2023/09/18 10:27:03;;;;;;;5.30;2.10;;;;;;;22.23;100.00;100348.06;5046576;28;20057;-70
2023/09/18 10:29:32;;;;;;;8.23;2.22;;;;;;;22.22;100.00;100353.63;5040606;28;20049;-70
2023/09/18 10:31:59;;;;;;;3.90;1.98;;;;;;;22.20;100.00;100359.22;5053108;28;20577;-69
2023/09/18 10:34:26;;;;;;;2.75;1.95;;;;;;;22.27;100.00;100357.25;5057759;28;20059;-71
2023/09/18 10:36:54;;;;;;;8.32;2.53;;;;;;;22.29;100.00;100336.47;5049817;28;20417;-75
2023/09/18 10:39:26;;;;;;;5.65;2.30;;;;;;;22.48;100.00;100366.53;5043823;28;20045;-71
2023/09/18 10:42:02;;;;;;;6.43;2.45;;;;;;;22.38;100.00;100360.13;5060167;28;20048;-71
2023/09/18 10:44:33;;;;;;;6.63;2.70;;;;;;;22.17;100.00;100353.53;5064534;28;20532;-71
2023/09/18 10:47:10;;;;;;;12.68;2.75;;;;;;;22.24;100.00;100355.03;5057026;28;20524;-72
2023/09/18 10:49:40;;;;;;;7.18;2.30;;;;;;;22.49;100.00;100367.31;5059623;28;20052;-71
2023/09/18 10:52:13;;;;;;;8.27;3.05;;;;;;;22.67;100.00;100369.00;5057325;28;20055;-73
2023/09/18 10:54:40;;;;;;;4.10;2.40;;;;;;;22.38;100.00;100358.28;5051367;28;20140;-70
2023/09/18 10:57:07;;;;;;;5.35;2.50;;;;;;;22.28;100.00;100350.84;5063899;28;20048;-71
2023/09/18 10:59:33;;;;;;;6.57;2.70;;;;;;;22.48;100.00;100355.84;5059771;28;20057;-71
2023/09/18 11:02:06;;;;;;;5.68;2.67;;;;;;;22.73;100.00;100352.00;5061722;28;20052;-70
2023/09/18 11:04:33;;;;;;;5.35;2.50;;;;;;;22.64;100.00;100353.44;5047220;28;20396;-71
2023/09/18 11:07:05;;;;;;;4.80;2.55;;;;;;;22.75;100.00;100355.25;5055270;28;20051;-70
2023/09/18 11:09:41;;;;;;;8.23;2.60;;;;;;;22.57;100.00;100347.44;5053451;28;20425;-70
2023/09/18 11:12:09;;;;;;;5.30;2.20;;;;;;;22.76;100.00;100340.84;5064618;28;20106;-70
2023/09/18 11:14:50;;;;;;;7.03;2.72;;;;;;;22.77;100.00;100344.34;5049236;28;20471;-71
2023/09/18 11:17:36;;;;;;;8.38;2.80;;;;;;;22.95;100.00;100343.31;5058691;28;20553;-70
2023/09/18 11:20:11;;;;;;;4.38;2.55;;;;;;;23.09;100.00;100332.13;5053991;28;20692;-70
2023/09/18 11:22:45;;;;;;;6.28;2.28;;;;;;;23.30;100.00;100340.47;5047170;28;20060;-70
2023/09/18 11:25:42;;;;;;;6.45;2.08;;;;;;;23.63;97.36;100337.00;5048903;28;20044;-70
2023/09/18 11:28:26;;;;;;;5.57;2.72;;;;;;;23.67;97.91;100332.75;5052096;28;20070;-72
2023/09/18 11:30:58;;;;;;;5.38;2.40;;;;;;;23.57;95.07;100326.47;5038208;28;20083;-70
2023/09/18 11:33:36;;;;;;;6.03;2.30;;;;;;;23.35;93.05;100331.75;5036879;28;20112;-70
2023/09/18 11:36:07;;;;;;;6.63;2.60;;;;;;;23.37;97.17;100333.13;5048370;28;20333;-70
2023/09/18 11:38:50;;;;;;;6.30;2.65;;;;;;;23.13;97.02;100345.00;5051031;28;20056;-70
2023/09/18 11:41:27;;;;;;;5.40;2.47;;;;;;;23.06;98.85;100335.28;5051484;28;20147;-71
2023/09/18 11:44:07;;;;;;;4.47;2.40;;;;;;;22.98;100.00;100329.47;5040555;28;20131;-70
2023/09/18 11:46:35;;;;;;;6.13;2.72;;;;;;;22.81;100.00;100340.13;5051555;28;20102;-70
2023/09/18 11:49:05;;;;;;;5.30;3.58;;;;;;;22.51;100.00;100351.88;5046304;28;20056;-70
2023/09/18 11:51:32;;;;;;;8.07;3.33;;;;;;;22.18;100.00;100357.81;5058264;28;20493;-70
2023/09/18 11:54:00;;;;;;;8.82;3.60;;;;;;;22.00;100.00;100348.09;5044532;28;20052;-70
2023/09/18 11:56:27;;;;;;;7.43;3.20;;;;;;;21.94;100.00;100343.69;5042437;28;20055;-71
2023/09/18 11:58:54;;;;;;;8.00;3.80;;;;;;;21.68;100.00;100354.59;5058048;28;20041;-70
2023/09/18 12:01:24;;;;;;;8.37;4.10;;;;;;;21.65;100.00;100364.91;5047579;28;20510;-71
2023/09/18 12:03:59;;;;;;;8.18;3.70;;;;;;;21.58;100.00;100351.69;5063431;28;20295;-70
2023/09/18 12:06:26;;;;;;;8.02;3.80;;;;;;;21.88;100.00;100353.44;5040576;28;20044;-70
2023/09/18 12:08:53;;;;;;;9.07;3.47;;;;;;;22.06;100.00;100339.16;5058650;28;20083;-70
2023/09/18 12:11:21;;;;;;;10.07;3.60;;;;;;;22.29;100.00;100339.13;5054418;28;20085;-70
2023/09/18 12:13:51;;;;;;;5.60;3.30;;;;;;;22.51;100.00;100336.63;5043229;28;20087;-71
2023/09/18 12:16:18;;;;;;;4.47;2.90;;;;;;;22.59;100.00;100340.00;5055982;28;20106;-71
2023/09/18 12:18:48;;;;;;;5.30;2.95;;;;;;;22.87;100.00;100339.16;5053529;28;20456;-71
2023/09/18 12:21:17;;;;;;;8.82;3.30;;;;;;;23.24;100.00;100338.78;5052782;28;20040;-70
2023/09/18 12:23:46;;;;;;;6.00;2.95;;;;;;;23.38;100.00;100329.38;5036364;28;20478;-71
2023/09/18 12:26:26;;;;;;;7.47;2.97;;;;;;;23.19;94.13;100342.19;5062727;28;20115;-70
2023/09/18 12:29:08;;;;;;;4.70;3.40;;;;;;;22.72;96.24;100339.72;5044773;28;20052;-71
2023/09/18 12:31:50;;;;;;;5.20;3.17;;;;;;;22.91;98.94;100342.97;5059824;28;20060;-71
2023/09/18 12:34:31;;;;;;;4.95;3.00;;;;;;;22.83;98.76;100338.84;5052150;28;20060;-70
2023/09/18 12:37:14;;;;;;;7.38;3.15;;;;;;;22.73;100.00;100340.53;5047170;28;20052;-72
2023/09/18 12:39:54;;;;;;;4.95;3.00;;;;;;;22.48;100.00;100336.28;5055151;28;20045;-71
2023/09/18 12:42:35;;;;;;;7.55;3.13;;;;;;;22.60;100.00;100333.56;5047764;28;20098;-71
2023/09/18 12:45:17;;;;;;;6.88;3.25;;;;;;;22.94;100.00;100326.47;5061359;28;20067;-70
2023/09/18 12:47:58;;;;;;;8.70;3.50;;;;;;;22.99;100.00;100326.56;5056093;28;20052;-69
2023/09/18 12:50:38;;;;;;;6.20;3.20;;;;;;;23.20;100.00;100334.97;5057341;28;20501;-70
2023/09/18 12:53:22;;;;;;;7.60;3.50;;;;;;;23.47;99.37;100321.75;5053723;28;20104;-70
2023/09/18 12:56:13;;;;;;;5.20;2.95;;;;;;;23.64;92.98;100321.75;5059373;28;20041;-70
2023/09/18 12:58:58;;;;;;;7.47;2.63;;;;;;;23.65;90.18;100312.66;5056173;28;20055;-71
2023/09/18 13:01:38;;;;;;;6.57;3.33;;;;;;;23.55;91.88;100307.16;5049384;28;20732;-71
2023/09/18 13:04:20;;;;;;;5.63;3.28;;;;;;;23.63;88.74;100306.75;5045594;28;20079;-71
2023/09/18 13:07:10;;;;;;;6.38;2.90;;;;;;;23.81;89.08;100287.72;5050638;28;20052;-71
2023/09/18 13:10:05;;;;;;;5.63;2.70;;;;;;;24.03;88.52;100289.63;5047694;28;20230;-70
2023/09/18 13:12:47;;;;;;;10.18;2.97;;;;;;;24.04;84.29;100294.75;5058957;28;20052;-70
2023/09/18 13:15:32;;;;;;;7.15;3.13;;;;;;;23.92;80.02;100307.44;5059811;28;20087;-72
2023/09/18 13:18:15;;;;;;;5.50;2.38;;;;;;;24.02;81.99;100285.34;5048877;28;20505;-71
2023/09/18 13:20:56;;;;;;;5.03;2.17;;;;;;;24.10;82.66;100287.59;5054776;28;20603;-72
2023/09/18 13:23:37;;;;;;;5.47;2.63;;;;;;;23.71;80.78;100286.78;5062385;28;20059;-72
2023/09/18 13:26:18;;;;;;;4.85;2.40;;;;;;;23.67;82.59;100275.75;5063273;28;20052;-72
2023/09/18 13:28:58;;;;;;;6.38;2.70;;;;;;;23.72;80.97;100264.28;5060481;28;20574;-72